Share

Radium Springs, NM (88054)

6:26 AM MDT on April 24, 2014 (GMT -0600)
Lookout Peak (KNMLASCR33) Elev 4708 ft | 32.46 °N, 106.92 °W | Change Station

Current weather conditions updated 6 minutes ago

Clear
Clear
51.5 °F
Feels Like 51.5 °F
N
11.0
Wind Variable Wind from NNW
Gusts 12.0 mph
Sunrise 6:28 AM
Sunset 7:44 PM
Moon Waning Crescent

Today is forecast to be Much Warmer than yesterday.

Pressure 30.02 in
Visibility 10.0 miles
Clouds Clear
Dew Point 13 °F
Humidity 21%
Rainfall 0.00 in
Snow Depth Not available.
UV 0 out of 16
Pollen 8.00 out of 12
Air Quality Not available.
Flu Activity Local Activity
METAR KLRU 241215Z AUTO 02003KT 10SM CLR 12/M13 A3002 RMK AO2 T01151131

More Conditions Fewer Conditions

Pressure 30.02 in
Visibility 10.0 miles
Clouds Clear
Dew Point 13 °F
Humidity 21%
Rainfall 0.00 in
Snow Depth Not available.
UV 0 out of 16
Pollen 8.00 out of 12
Air Quality Not available.
Flu Activity Local Activity
METAR KLRU 241215Z AUTO 02003KT 10SM CLR 12/M13 A3002 RMK AO2 T01151131

More Conditions Fewer Conditions

10-Day Weather Forecast

Almanac

Astronomy

Apr. 24, 2014 Rise Set
Actual Time 6:28 AM MDT 7:44 PM MDT
Civil Twilight 6:02 AM MDT 8:10 PM MDT
Nautical Twilight 5:32 AM MDT 8:41 PM MDT
Astronomical Twilight 5:00 AM MDT 9:13 PM MDT
Moon 3:24 AM MDT 3:18 PM MDT
Length of Visible Light 14h 07m
Length of Day
13h 16m
Tomorrow will be 1m 48s longer.
Waning Crescent, 26% of the Moon is Illuminated
Today
Waning Crescent
Apr 29
New
May 6
First Quarter
May 14
Full
May 21
Last Quarter

Today's Extremes

State Highs State Lows

Community

  • Stacked
    Stacked
  • clouds approaching Red Sox Nation
    clouds approaching Red Sox Nation
  • Balance
    Balance
  • Nestled In
    Nestled In
  • Stunning Sunrise
    Stunning Sunrise

WunderPhotos

Upload Photos

1,704,592 photos uploaded!

Nearby

Snow Depth

Station Depth Elevation
McKnight Cabin 1 in 9240 ft
Signal Peak 1 in 8360 ft
Lookout Mountain 0 in 8500 ft
Silver Creek Divide 1 in 9000 ft
Frisco Divide 0 in 8000 ft

Coastal Water Temperatures

Place Temperature
No Stations Reporting

Earthquake Activity

City Distance Mag. Time & Date
No recent earthquake activity has been reported nearby.
Minimum magnitude displayed is 2.5.

Nearby Weather Stations

Station Location Temp. Windchill Dew Point Humidity Wind Precip. Elev Updated Type
Lookout Peak, Las Cruces, NM 51.5 °F - 13 °F 21% NNW  at  11.0 mph 0.00 in / hr 4708 ft 6:20 AM MDT Normal
MesoWest JORNADA EXP RANGE , Las Cruces, NM 43 °F 43 °F 9 °F 25% NNE  at  3 mph 0.00 in / hr 4359 ft 5:00 AM MDT MADIS
Shalem Colony, Las Cruces, NM 48.3 °F 48 °F 4 °F 16% WNW  at  0.0 mph 0.00 in / hr 3944 ft 6:24 AM MDT Normal

Show More Stations Show Fewer Stations

What do you think?

We're not finished. Please let us know what you like, what you don't like, and what you are still missing.